Westchester, Illinois
Current Conditions -  °F | °C
As of 9:53 PM on Sunday 23 Nov 2014 (Local Time) from KMDW Reporting Station
Light Rain Light Rain  
Wind Chill: 52°   Ceiling: 600
Heat Index: 52°   Visibility: 8mi
Dew Point: 51°   Wind: 3mph
Humidity: 97%   Direction: 190°S
Pressure: 29.16"   Gusts: NA
Location:  41.86°N, 87.88°W
Report Text: KMDW 240353Z 19003KT 8SM -RA OVC006 11/11 A2916 RMK AO2 SLP874 P0008 T01110106
Loading
Personal Weather Stations






























Interactive Weather Map New forecast layout! Learn more

10-Day Weather Forecast

Advertisements
Track Severe Weather on mobile